Data for 03/09/2015

Time Sea-Level Adjusted Pressure Absolute Pressure Temperature Relative Humidity Dew Point   
(mb) (inHg) (mb) (inHg) (C) (F) (%) (C) (F)
00:05 1019 30.09 849 25.07 3.2 37.8 47 -7 19.4
00:10 1019 30.09 849 25.07 3.4 38.1 47 -7 19.4
00:15 1019 30.09 849 25.07 3.5 38.3 46 -7.1 19.1
00:20 1019 30.09 849 25.07 3.5 38.4 47 -6.8 19.8
00:25 1019 30.09 848 25.04 3 37.4 49 -6.7 19.9
00:30 1019 30.09 849 25.07 2.8 37.1 47 -7.3 18.8
00:35 1019 30.09 849 25.07 3.4 38.1 45 -7.3 18.8
00:40 1019 30.09 849 25.07 3.3 37.9 46 -7.3 18.9
00:45 1019 30.09 849 25.07 3 37.4 49 -6.6 20
00:50 1019 30.09 848 25.04 2.4 36.3 50 -7 19.3
00:55 1019 30.09 848 25.04 2.2 36 51 -6.8 19.7
01:00 1019 30.09 848 25.04 1.9 35.5 52 -6.8 19.7
01:05 1019 30.09 848 25.04 1.8 35.2 51 -7.2 19
01:10 1019 30.09 848 25.04 2 35.6 52 -6.9 19.6
01:15 1019 30.09 848 25.04 2.1 35.7 51 -7.1 19.3
01:20 1019 30.09 848 25.04 2 35.6 52 -6.9 19.6
01:25 1019 30.09 848 25.04 1.7 35.1 53 -6.8 19.8
01:30 1019 30.09 848 25.04 1.5 34.7 53 -7.1 19.2
01:35 1019 30.09 848 25.04 2.2 36 48 -7.8 18
01:40 1019 30.09 848 25.04 2.5 36.5 49 -7.1 19.3
01:45 1019 30.09 848 25.04 2.2 36 50 -7.2 19.1
01:50 1019 30.09 848 25.04 2.1 35.9 49 -7.5 18.6
01:55 1019 30.09 848 25.04 2.4 36.2 50 -7 19.4
02:00 1019 30.09 848 25.04 2.3 36.1 49 -7.4 18.7
02:05 1019 30.09 848 25.04 2.3 36.1 49 -7.3 18.8
02:10 1019 30.09 848 25.04 2.5 36.5 47 -7.6 18.4
02:15 1019 30.09 848 25.04 2.4 36.3 51 -6.8 19.7
02:20 1019 30.09 848 25.04 1.8 35.3 52 -7 19.5
02:25 1019 30.09 848 25.04 1.6 34.9 52 -7.2 19
02:30 1019 30.09 848 25.04 1.6 34.9 52 -7.3 18.8
02:35 1019 30.09 848 25.04 1.9 35.5 51 -7.2 19.1
02:40 1019 30.09 848 25.04 2 35.6 51 -7.2 19.1
02:45 1019 30.09 848 25.04 1.8 35.3 52 -6.9 19.6
02:50 1019 30.09 848 25.04 1.6 34.8 53 -7 19.4
02:55 1019 30.09 848 25.04 1.5 34.7 54 -6.9 19.6
03:00 1019 30.09 848 25.04 1.4 34.5 52 -7.5 18.6
03:05 1019 30.09 848 25.04 2 35.5 52 -6.8 19.7
03:10 1019 30.09 848 25.04 1.5 34.7 53 -7.2 19.1
03:15 1019 30.09 848 25.04 1.7 35 54 -6.7 19.9
03:20 1019 30.09 848 25.04 1.4 34.5 55 -6.7 20
03:25 1019 30.09 848 25.04 1.1 34 56 -6.7 20
03:30 1019 30.09 848 25.04 0.9 33.6 57 -6.8 19.8
03:35 1019 30.09 848 25.04 0.9 33.6 58 -6.5 20.3
03:40 1019 30.09 848 25.04 0.8 33.4 57 -6.9 19.6
03:45 1019 30.09 848 25.04 1 33.7 56 -6.8 19.8
03:50 1019 30.09 848 25.04 1 33.8 56 -6.9 19.5
03:55 1019 30.09 848 25.04 1 33.8 57 -6.6 20.1
04:00 1019 30.09 848 25.04 0.9 33.6 56 -6.8 19.7
04:05 1019 30.09 848 25.04 0.6 33 59 -6.6 20.1
04:10 1019 30.09 848 25.04 0.5 32.9 59 -6.7 20
04:15 1019 30.09 848 25.04 0.4 32.7 60 -6.6 20.1
04:20 1019 30.09 848 25.04 0.3 32.6 59 -6.8 19.7
04:25 1019 30.09 848 25.04 0.3 32.5 60 -6.6 20.2
04:30 1019 30.09 848 25.04 0 32.1 60 -6.9 19.6
04:35 1019 30.09 848 25.04 0.2 32.3 58 -7.1 19.3
04:40 1019 30.09 848 25.04 0.2 32.3 59 -6.8 19.7
04:45 1019 30.09 848 25.04 0.1 32.1 59 -7 19.4
04:50 1019 30.09 848 25.04 0 32.1 59 -7 19.3
04:55 1019 30.09 848 25.04 0.1 32.2 58 -7.1 19.2
05:00 1019 30.09 848 25.04 -0 32 59 -7.1 19.2
05:05 1019 30.09 848 25.04 -0.1 31.8 59 -7.2 19.1
05:10 1019 30.09 848 25.04 0 32.1 59 -7.1 19.2
05:15 1019 30.09 848 25.04 0.2 32.3 57 -7.4 18.7
05:20 1019 30.09 848 25.04 0.3 32.5 56 -7.6 18.4
05:25 1019 30.09 848 25.04 0.1 32.1 57 -7.4 18.6
05:30 1019 30.09 848 25.04 0.1 32.2 58 -7.3 18.9
05:35 1019 30.09 848 25.04 0.3 32.5 55 -7.7 18.2
05:40 1019 30.09 848 25.04 0.5 32.9 55 -7.6 18.4
05:45 1019 30.09 848 25.04 0.3 32.5 56 -7.4 18.6
05:50 1019 30.09 848 25.04 0.2 32.3 57 -7.4 18.7
05:55 1019 30.09 848 25.04 0.1 32.1 57 -7.4 18.8
06:00 1019 30.09 848 25.04 -0.2 31.7 58 -7.5 18.5
06:05 1019 30.09 848 25.04 -0.2 31.7 57 -7.8 18
06:10 1019 30.09 848 25.04 -0.1 31.8 58 -7.4 18.8
06:15 1019 30.09 848 25.04 -0.1 31.8 57 -7.6 18.3
06:20 1019 30.09 848 25.04 0 32 57 -7.5 18.4
06:25 1019 30.09 848 25.04 -0 32 56 -7.7 18.2
06:30 1019 30.09 848 25.04 -0.2 31.7 57 -7.7 18.2
06:35 1019 30.09 848 25.04 -0.4 31.3 60 -7.3 18.8
06:40 1019 30.09 848 25.04 -0.8 30.6 62 -7.2 19.1
06:45 1019 30.09 848 25.04 -0.6 30.9 60 -7.4 18.6
06:50 1019 30.09 848 25.04 -0.4 31.3 58 -7.7 18.1
06:55 1019 30.09 848 25.04 -0.3 31.4 58 -7.7 18.2
07:00 1019 30.09 848 25.04 -0.4 31.3 58 -7.8 18
07:05 1019 30.09 848 25.04 -0.4 31.2 57 -7.9 17.8
07:10 1019 30.09 848 25.04 -0.5 31.2 58 -7.8 18
07:15 1019 30.09 848 25.04 -0.2 31.6 57 -7.8 18
07:20 1019 30.09 848 25.04 -0 31.9 57 -7.5 18.6
07:25 1019 30.09 848 25.04 0 32.1 56 -7.7 18.1
07:30 1019 30.09 848 25.04 0.5 32.8 55 -7.5 18.5
07:35 1019 30.09 848 25.04 0.6 33 55 -7.5 18.4
07:40 1019 30.09 848 25.04 0.7 33.3 53 -7.8 17.9
07:45 1019 30.09 848 25.04 1.4 34.6 50 -7.8 17.9
07:50 1019 30.09 848 25.04 1.5 34.7 51 -7.6 18.3
07:55 1019 30.09 848 25.04 1.4 34.5 50 -7.8 17.9
08:00 1019 30.09 848 25.04 1.5 34.7 50 -7.8 17.9
08:05 1019 30.09 848 25.04 1.8 35.3 49 -7.9 17.8
08:10 1019 30.09 848 25.04 2.3 36.1 47 -8 17.7
08:15 1019 30.09 848 25.04 2.4 36.3 46 -8 17.5
08:20 1019 30.09 848 25.04 3 37.3 43 -8.4 16.9
08:25 1019 30.09 848 25.04 3.6 38.5 45 -7.3 18.9
08:30 1019 30.09 848 25.04 2.9 37.2 47 -7.5 18.5
08:35 1019 30.09 848 25.04 3.5 38.3 44 -7.7 18.2
08:40 1019 30.09 848 25.04 4 39.2 42 -7.9 17.7
08:45 1019 30.09 848 25.04 4.9 40.7 40 -7.7 18.1
08:50 1019 30.09 848 25.04 5.2 41.3 39 -7.8 18
08:55 1019 30.09 848 25.04 5.6 42.1 38 -7.6 18.3
09:00 1019 30.09 848 25.04 6 42.9 36 -7.9 17.7
09:05 1019 30.09 848 25.04 6.3 43.3 36 -7.8 17.9
09:10 1019 30.09 848 25.04 6.1 43 36 -8 17.7
09:15 1019 30.09 848 25.04 5.6 42 38 -7.8 17.9
09:20 1019 30.09 848 25.04 5.9 42.7 34 -8.6 16.5
09:25 1019 30.09 848 25.04 6.5 43.6 34 -8.4 16.9
09:30 1019 30.09 848 25.04 6.7 44.1 34 -8.2 17.2
09:35 1019 30.09 848 25.04 6.9 44.5 32 -8.6 16.4
09:40 1019 30.09 848 25.04 7.1 44.7 32 -8.5 16.7
09:45 1019 30.09 848 25.04 7.4 45.3 32 -8.4 16.9
09:50 1019 30.09 848 25.04 7.7 45.9 31 -8.4 16.8
09:55 1019 30.09 848 25.04 8.4 47.1 30 -8.4 16.9
10:00 1019 30.09 848 25.04 8.6 47.4 30 -8.1 17.5
10:05 1019 30.09 848 25.04 8.8 47.8 29 -8.3 17.1
10:10 1019 30.09 848 25.04 9.3 48.7 29 -8 17.6
10:15 1019 30.09 848 25.04 9.5 49.1 28 -8.2 17.3
10:20 1019 30.09 848 25.04 9.6 49.3 28 -8.2 17.3
10:25 1019 30.09 848 25.04 9.1 48.4 29 -8.1 17.4
10:30 1019 30.09 848 25.04 9.1 48.4 29 -8.2 17.3
10:35 1019 30.09 848 25.04 8.7 47.6 29 -8.3 17.1
10:40 1019 30.09 848 25.04 9.4 48.8 28 -8.4 16.8
10:45 1019 30.09 848 25.04 9.9 49.7 27 -8.1 17.5
10:50 1019 30.09 848 25.04 10.1 50.1 26 -8.3 17
10:55 1019 30.09 848 25.04 10.5 50.8 24 -9.1 15.6
11:00 1019 30.09 848 25.04 10.2 50.3 26 -8.5 16.7
11:05 1018 30.06 848 25.04 10.5 50.9 25 -8.7 16.3
11:10 1018 30.06 848 25.04 10.8 51.5 24 -9.2 15.5
11:15 1018 30.06 848 25.04 11.2 52.1 24 -8.4 16.9
11:20 1018 30.06 848 25.04 11 51.8 24 -8.7 16.4
11:25 1018 30.06 848 25.04 11.1 52 24 -8.5 16.7
11:30 1018 30.06 847 25.01 10.9 51.7 25 -8.3 17
11:35 1018 30.06 847 25.01 10.6 51.1 25 -8.5 16.7
11:40 1018 30.06 847 25.01 11.2 52.2 24 -8.5 16.7
11:45 1018 30.06 847 25.01 11.7 53 23 -8.7 16.4
11:50 1018 30.06 848 25.04 11.9 53.4 22 -8.9 15.9
11:55 1018 30.06 848 25.04 12 53.6 22 -9 15.8
12:00 1018 30.06 847 25.01 12.2 53.9 21 -9.3 15.3
12:05 1018 30.06 847 25.01 12.7 54.8 21 -9.2 15.5
12:10 1018 30.06 847 25.01 13 55.4 20 -9.2 15.4
12:15 1018 30.06 847 25.01 13.3 56 19 -9.7 14.5
12:20 1018 30.06 847 25.01 13.6 56.4 19 -9.6 14.7
12:25 1018 30.06 847 25.01 13.7 56.6 18 -10.1 13.9
12:30 1018 30.06 847 25.01 13.7 56.6 17 -10.8 12.5
12:35 1018 30.06 847 25.01 13.6 56.5 18 -10.2 13.7
12:40 1018 30.06 847 25.01 12.6 54.6 18 -11.3 11.7
12:45 1018 30.06 847 25.01 13.6 56.5 15 -12.4 9.8
12:50 1017 30.03 847 25.01 14 57.2 15 -12.2 10.1
12:55 1017 30.03 847 25.01 14.4 58 14 -12.7 9.1
13:00 1017 30.03 846 24.98 14.2 57.5 14 -12.7 9.2
13:05 1017 30.03 846 24.98 14.2 57.6 14 -12.8 8.9
13:10 1017 30.03 846 24.98 14.4 58 14 -12.9 8.7
13:15 1017 30.03 846 24.98 14.4 58 14 -12.8 9
13:20 1017 30.03 846 24.98 14.7 58.5 14 -12.5 9.4
13:25 1017 30.03 846 24.98 14.5 58 14 -13.1 8.5
13:30 1017 30.03 846 24.98 14.6 58.3 13 -13.1 8.4
13:35 1017 30.03 846 24.98 14.7 58.4 14 -13 8.7
13:40 1017 30.03 846 24.98 14.4 58 13 -13.4 7.8
13:45 1017 30.03 846 24.98 15 59.1 13 -13.5 7.7
13:50 1017 30.03 846 24.98 15.2 59.4 13 -13.2 8.3
13:55 1017 30.03 846 24.98 14.1 57.3 14 -13.4 7.9
14:00 1016 30 846 24.98 14 57.2 13 -13.6 7.5
14:05 1016 30 846 24.98 13.7 56.7 14 -13.7 7.3
14:10 1016 30 846 24.98 14.5 58 13 -13.9 6.9
14:15 1016 30 846 24.98 14.7 58.5 13 -13.4 7.9
14:20 1016 30 845 24.95 14.7 58.5 13 -13.5 7.7
14:25 1016 30 845 24.95 14.9 58.8 13 -13.3 8.1
14:30 1016 30 845 24.95 15.4 59.7 12 -13.4 7.9
14:35 1016 30 845 24.95 15.6 60 13 -12.8 9
14:40 1016 30 845 24.95 15.5 59.9 13 -13 8.6
14:45 1016 30 845 24.95 14.9 58.7 13 -13 8.5
14:50 1016 30 845 24.95 15.6 60.1 13 -12.5 9.5
14:55 1016 30 845 24.95 15.6 60 13 -12.6 9.4
15:00 1016 30 845 24.95 15.2 59.3 14 -12.3 9.9
15:05 1016 30 845 24.95 14.9 58.7 14 -12.1 10.2
15:10 1016 30 845 24.95 14.7 58.5 14 -12.6 9.4
15:15 1016 30 845 24.95 15.5 59.8 14 -12.4 9.7
15:20 1016 30 845 24.95 15 58.9 14 -12.4 9.6
15:25 1016 30 845 24.95 14.9 58.8 15 -11.9 10.5
15:30 1016 30 845 24.95 15.4 59.7 14 -12.2 10.1
15:35 1016 30 845 24.95 15.6 60.1 14 -12.2 10
15:40 1016 30 845 24.95 15.8 60.4 13 -12.4 9.7
15:45 1016 30 845 24.95 15.6 60 14 -12.2 10.1
15:50 1015 29.97 845 24.95 15.2 59.4 13 -12.6 9.4
15:55 1015 29.97 845 24.95 15.6 60.1 13 -12.3 9.9
16:00 1015 29.97 845 24.95 15.9 60.6 13 -12.5 9.5
16:05 1015 29.97 845 24.95 15.6 60 13 -12.3 9.8
16:10 1015 29.97 845 24.95 15.4 59.7 13 -12.7 9.2
16:15 1015 29.97 845 24.95 14.9 58.9 14 -12.6 9.3
16:20 1015 29.97 844 24.92 14.7 58.5 14 -12.6 9.3
16:25 1015 29.97 844 24.92 14.5 58.1 14 -12.7 9.2
16:30 1015 29.97 844 24.92 14.2 57.6 14 -12.6 9.3
16:35 1015 29.97 844 24.92 14.2 57.5 14 -13.1 8.4
16:40 1015 29.97 844 24.92 14.1 57.4 14 -13.1 8.4
16:45 1015 29.97 844 24.92 14.2 57.5 14 -13.4 7.9
16:50 1015 29.97 844 24.92 13.8 56.8 14 -13.1 8.4
16:55 1015 29.97 844 24.92 13.9 57 14 -13.2 8.3
17:00 1015 29.97 844 24.92 14.5 58 14 -12.8 8.9
17:05 1015 29.97 844 24.92 15.1 59.2 13 -12.7 9.1
17:10 1015 29.97 844 24.92 15.6 60.2 13 -12.7 9.1
17:15 1015 29.97 844 24.92 14.8 58.6 14 -12.7 9.2
17:20 1015 29.97 844 24.92 14.9 58.7 14 -12.8 8.9
17:25 1015 29.97 844 24.92 15.1 59.1 13 -12.8 9
17:30 1015 29.97 844 24.92 14.9 58.8 14 -12.6 9.3
17:35 1015 29.97 844 24.92 14.4 58 14 -12.7 9.1
17:40 1015 29.97 844 24.92 14.2 57.6 14 -12.6 9.3
17:45 1015 29.97 844 24.92 13.9 57.1 14 -12.8 8.9
17:50 1015 29.97 844 24.92 13.7 56.6 14 -13.5 7.7
17:55 1015 29.97 844 24.92 13.5 56.3 14 -13.5 7.8
18:00 1015 29.97 844 24.92 13.1 55.6 14 -13.4 7.9
18:05 1015 29.97 844 24.92 12.8 55 14 -13.9 6.9
18:10 1015 29.97 844 24.92 12.7 54.8 14 -13.9 7
18:15 1015 29.97 844 24.92 12.6 54.6 15 -13.5 7.8
18:20 1015 29.97 844 24.92 12.4 54.2 15 -14 6.8
18:25 1015 29.97 844 24.92 12.3 54.1 15 -13.8 7.2
18:30 1015 29.97 844 24.92 12 53.7 15 -13.5 7.8
18:35 1015 29.97 844 24.92 11.6 52.9 16 -13.8 7.2
18:40 1015 29.97 844 24.92 11.5 52.7 15 -14.1 6.5
18:45 1015 29.97 844 24.92 11.6 52.8 15 -13.9 7
18:50 1015 29.97 844 24.92 11.5 52.8 15 -14 6.7
18:55 1015 29.97 845 24.95 11.3 52.4 17 -12.9 8.8
19:00 1015 29.97 845 24.95 10.9 51.6 19 -12.2 10.1
19:05 1015 29.97 845 24.95 9.9 49.8 21 -11.6 11.1
19:10 1015 29.97 845 24.95 9 48.1 21 -12 10.3
19:15 1015 29.97 844 24.92 8.9 48 21 -12.3 9.8
19:20 1015 29.97 844 24.92 9.1 48.3 21 -12.2 10
19:25 1015 29.97 845 24.95 8.6 47.4 23 -11.4 11.4
19:30 1015 29.97 845 24.95 8.2 46.7 22 -12.1 10.3
19:35 1015 29.97 844 24.92 7.9 46.1 24 -11.4 11.4
19:40 1015 29.97 844 24.92 7.7 45.8 23 -12.1 10.2
19:45 1015 29.97 844 24.92 8.3 46.9 21 -12.8 8.9
19:50 1015 29.97 845 24.95 8.3 47 22 -12.2 10
19:55 1015 29.97 845 24.95 8.2 46.7 23 -12 10.3
20:00 1016 30 845 24.95 8.1 46.5 23 -12 10.4
20:05 1016 30 845 24.95 7.9 46.2 23 -12.2 10
20:10 1016 30 845 24.95 7.9 46.3 23 -11.9 10.6
20:15 1016 30 845 24.95 8.1 46.5 21 -13.2 8.2
20:20 1016 30 845 24.95 8.4 47 22 -12.4 9.7
20:25 1016 30 845 24.95 8 46.4 23 -12.1 10.2
20:30 1016 30 845 24.95 7.7 45.9 23 -12.2 10
20:35 1016 30 845 24.95 7.5 45.5 24 -11.8 10.8
20:40 1016 30 845 24.95 7.2 44.9 24 -12 10.4
20:45 1016 30 845 24.95 7.3 45.1 24 -11.9 10.5
20:50 1016 30 845 24.95 7.2 44.9 24 -11.9 10.5
20:55 1016 30 845 24.95 7 44.7 24 -12.2 10.1
21:00 1016 30 845 24.95 7.1 44.8 23 -12.5 9.5
21:05 1016 30 845 24.95 7.2 45 24 -12.3 9.9
21:10 1016 30 846 24.98 7.1 44.9 24 -12.3 9.8
21:15 1016 30 846 24.98 7.2 45 23 -12.5 9.4
21:20 1016 30 846 24.98 7.5 45.4 23 -12.4 9.7
21:25 1017 30.03 846 24.98 7.3 45.1 25 -11.7 10.9
21:30 1017 30.03 846 24.98 6.8 44.2 26 -11.5 11.3
21:35 1017 30.03 846 24.98 6.6 43.9 26 -11.7 10.9
21:40 1017 30.03 846 24.98 6.9 44.4 23 -12.7 9.1
21:45 1017 30.03 846 24.98 7.4 45.4 23 -12.2 10
21:50 1017 30.03 846 24.98 7.4 45.3 24 -12.1 10.2
21:55 1017 30.03 846 24.98 7.2 44.9 24 -11.9 10.6
22:00 1017 30.03 846 24.98 6.7 44.1 26 -11.7 10.9
22:05 1017 30.03 846 24.98 6.2 43.2 27 -11.4 11.4
22:10 1017 30.03 846 24.98 5.6 42.1 29 -11 12.1
22:15 1017 30.03 846 24.98 5.1 41.3 31 -10.7 12.7
22:20 1017 30.03 846 24.98 4.8 40.7 30 -11.2 11.9
22:25 1017 30.03 846 24.98 4.7 40.5 30 -11.4 11.5
22:30 1017 30.03 846 24.98 5.1 41.1 30 -11.3 11.7
22:35 1017 30.03 846 24.98 5.1 41.2 30 -11.2 11.8
22:40 1017 30.03 847 25.01 5.1 41.2 30 -11.2 11.8
22:45 1017 30.03 847 25.01 4.8 40.7 31 -10.8 12.6
22:50 1018 30.06 847 25.01 4.1 39.3 33 -10.9 12.4
22:55 1018 30.06 847 25.01 3.4 38.1 35 -10.8 12.5
23:00 1018 30.06 847 25.01 3.2 37.7 34 -11.2 11.8
23:05 1018 30.06 847 25.01 3.9 39.1 33 -11 12.2
23:10 1018 30.06 847 25.01 3.8 38.9 32 -11.3 11.6
23:15 1018 30.06 847 25.01 4.3 39.7 32 -11.1 12
23:20 1018 30.06 847 25.01 4.3 39.7 32 -11.1 12
23:25 1018 30.06 847 25.01 4.2 39.6 31 -11.4 11.5
23:30 1018 30.06 847 25.01 4.3 39.7 32 -11.1 12
23:35 1018 30.06 847 25.01 4.4 39.9 30 -11.5 11.3
23:40 1018 30.06 847 25.01 4.4 39.9 31 -11.1 12
23:45 1018 30.06 847 25.01 4.3 39.7 31 -11.2 11.8
23:50 1018 30.06 847 25.01 4.3 39.7 32 -11.2 11.9
23:55 1018 30.06 847 25.01 4.3 39.8 30 -11.7 10.9
24:00 1018 30.06 847 25.01 4.7 40.5 31 -11.1 11.9